Time,TemperatureF,DewpointF,PressureIn,WindDirection,WindDirectionDegrees,WindSpeedMPH,WindSpeedGustMPH,Humidity,HourlyPrecipIn,Conditions,Clouds,dailyrainin,SoftwareType,DateUTC
2013-02-02 00:01:00,20.4,10.2,30.30,North,355,0.0,0.0,64,0.00,,,0.00,WeatherCatV1.10B1784,2013-02-02 05:01:00,
2013-02-02 00:06:00,20.5,11.0,30.30,North,349,0.0,1.0,66,0.00,,,0.00,WeatherCatV1.10B1784,2013-02-02 05:06:00,
2013-02-02 00:11:00,20.5,9.6,30.30,NNE,19,2.0,2.0,62,0.00,,,0.00,WeatherCatV1.10B1784,2013-02-02 05:11:00,
2013-02-02 00:16:00,20.5,9.9,30.30,East,89,2.0,2.0,63,0.00,,,0.00,WeatherCatV1.10B1784,2013-02-02 05:16:00,
2013-02-02 00:21:00,20.5,10.3,30.29,ENE,78,0.0,4.0,64,0.00,,,0.00,WeatherCatV1.10B1784,2013-02-02 05:21:00,
2013-02-02 00:26:00,20.4,11.2,30.29,ESE,119,1.0,2.0,67,0.00,,,0.00,WeatherCatV1.10B1784,2013-02-02 05:26:00,
2013-02-02 00:31:00,20.3,10.4,30.29,North,5,0.0,0.0,65,0.00,,,0.00,WeatherCatV1.10B1784,2013-02-02 05:31:00,
2013-02-02 00:36:00,20.3,10.4,30.30,North,5,0.0,0.0,65,0.00,,,0.00,WeatherCatV1.10B1784,2013-02-02 05:36:00,
2013-02-02 00:41:00,20.4,11.5,30.29,SSE,152,0.0,1.0,68,0.00,,,0.00,WeatherCatV1.10B1784,2013-02-02 05:41:00,
2013-02-02 00:46:00,20.3,11.5,30.29,SSE,151,0.0,0.0,68,0.00,,,0.00,WeatherCatV1.10B1784,2013-02-02 05:46:00,
2013-02-02 00:51:00,20.2,11.0,30.29,SSE,153,0.0,1.0,67,0.00,,,0.00,WeatherCatV1.10B1784,2013-02-02 05:51:00,
2013-02-02 00:56:00,20.1,11.6,30.29,SSE,153,0.0,0.0,69,0.00,,,0.00,WeatherCatV1.10B1784,2013-02-02 05:56:00,
2013-02-02 01:01:00,20.1,11.9,30.29,SSE,153,0.0,0.0,70,0.00,,,0.00,WeatherCatV1.10B1784,2013-02-02 06:01:00,
2013-02-02 01:06:00,20.1,11.6,30.28,SSE,153,0.0,0.0,69,0.00,,,0.00,WeatherCatV1.10B1784,2013-02-02 06:06:00,
2013-02-02 01:11:00,20.0,11.8,30.29,SSE,153,0.0,0.0,70,0.00,,,0.00,WeatherCatV1.10B1784,2013-02-02 06:11:00,
2013-02-02 01:16:00,19.9,12.0,30.28,SSE,153,0.0,0.0,71,0.00,,,0.00,WeatherCatV1.10B1784,2013-02-02 06:16:00,
2013-02-02 01:21:00,19.8,11.3,30.28,SSE,153,0.0,0.0,69,0.00,,,0.00,WeatherCatV1.10B1784,2013-02-02 06:21:00,
2013-02-02 01:26:00,19.8,11.9,30.28,SSE,154,0.0,1.0,71,0.00,,,0.00,WeatherCatV1.10B1784,2013-02-02 06:26:00,
2013-02-02 01:31:00,19.7,12.5,30.29,SSE,154,0.0,0.0,73,0.00,,,0.00,WeatherCatV1.10B1784,2013-02-02 06:31:00,
2013-02-02 01:36:00,19.7,12.8,30.28,SSE,154,0.0,0.0,74,0.00,,,0.00,WeatherCatV1.10B1784,2013-02-02 06:36:00,
2013-02-02 01:41:00,19.7,13.4,30.29,SSE,154,0.0,0.0,76,0.00,,,0.00,WeatherCatV1.10B1784,2013-02-02 06:41:00,
2013-02-02 01:46:00,19.7,13.1,30.29,SSE,154,0.0,0.0,75,0.00,,,0.00,WeatherCatV1.10B1784,2013-02-02 06:46:00,
2013-02-02 01:51:00,19.7,12.8,30.28,SSE,154,0.0,0.0,74,0.00,,,0.00,WeatherCatV1.10B1784,2013-02-02 06:51:00,
2013-02-02 01:56:00,19.5,13.2,30.28,SSE,154,0.0,0.0,76,0.00,,,0.00,WeatherCatV1.10B1784,2013-02-02 06:56:00,
2013-02-02 02:01:00,19.5,12.9,30.28,SSE,154,0.0,0.0,75,0.00,,,0.00,WeatherCatV1.10B1784,2013-02-02 07:01:00,
2013-02-02 02:06:00,19.4,12.8,30.28,SSE,154,0.0,0.0,75,0.00,,,0.00,WeatherCatV1.10B1784,2013-02-02 07:06:00,
2013-02-02 02:11:00,19.3,13.3,30.28,SSE,154,0.0,0.0,77,0.00,,,0.00,WeatherCatV1.10B1784,2013-02-02 07:11:00,
2013-02-02 02:16:00,19.3,13.6,30.27,SSE,154,0.0,0.0,78,0.00,,,0.00,WeatherCatV1.10B1784,2013-02-02 07:16:00,
2013-02-02 02:21:00,19.3,13.3,30.27,SSE,154,0.0,0.0,77,0.00,,,0.00,WeatherCatV1.10B1784,2013-02-02 07:21:00,
2013-02-02 02:26:00,19.2,12.9,30.28,SSE,154,0.0,0.0,76,0.00,,,0.00,WeatherCatV1.10B1784,2013-02-02 07:26:00,
2013-02-02 02:31:00,19.1,14.0,30.28,SSE,154,0.0,0.0,80,0.00,,,0.00,WeatherCatV1.10B1784,2013-02-02 07:31:00,
2013-02-02 02:36:00,19.0,13.0,30.28,East,101,0.0,1.0,77,0.00,,,0.00,WeatherCatV1.10B1784,2013-02-02 07:36:00,
2013-02-02 02:41:00,19.0,13.0,30.27,East,98,0.0,0.0,77,0.00,,,0.00,WeatherCatV1.10B1784,2013-02-02 07:41:00,
2013-02-02 02:46:00,18.9,12.6,30.27,NNW,336,2.0,2.0,76,0.00,,,0.00,WeatherCatV1.10B1784,2013-02-02 07:46:00,
2013-02-02 02:51:00,18.9,12.6,30.26,WNW,288,0.0,1.0,76,0.00,,,0.00,WeatherCatV1.10B1784,2013-02-02 07:51:00,
2013-02-02 02:56:00,19.0,12.7,30.26,WNW,288,0.0,0.0,76,0.00,,,0.00,WeatherCatV1.10B1784,2013-02-02 07:56:00,
2013-02-02 03:01:00,19.1,13.1,30.26,WNW,288,0.0,0.0,77,0.00,,,0.00,WeatherCatV1.10B1784,2013-02-02 08:01:00,
2013-02-02 03:06:00,19.2,13.2,30.27,WNW,288,0.0,1.0,77,0.00,,,0.00,WeatherCatV1.10B1784,2013-02-02 08:06:00,
2013-02-02 03:11:00,19.3,13.0,30.27,WNW,288,0.0,0.0,76,0.00,,,0.00,WeatherCatV1.10B1784,2013-02-02 08:11:00,
2013-02-02 03:16:00,19.4,14.0,30.26,WNW,288,0.0,0.0,79,0.00,,,0.00,WeatherCatV1.10B1784,2013-02-02 08:16:00,
2013-02-02 03:21:00,19.4,13.1,30.27,WNW,288,0.0,0.0,76,0.00,,,0.00,WeatherCatV1.10B1784,2013-02-02 08:21:00,
2013-02-02 03:26:00,19.4,13.1,30.26,WNW,288,0.0,0.0,76,0.00,,,0.00,WeatherCatV1.10B1784,2013-02-02 08:26:00,
2013-02-02 03:31:00,19.4,13.7,30.26,WNW,288,0.0,0.0,78,0.00,,,0.00,WeatherCatV1.10B1784,2013-02-02 08:31:00,
2013-02-02 03:36:00,19.5,13.8,30.26,WNW,288,0.0,0.0,78,0.00,,,0.00,WeatherCatV1.10B1784,2013-02-02 08:36:00,
2013-02-02 03:41:00,19.5,13.8,30.26,WNW,288,0.0,0.0,78,0.00,,,0.00,WeatherCatV1.10B1784,2013-02-02 08:41:00,
2013-02-02 03:46:00,19.5,12.9,30.26,WNW,288,0.0,0.0,75,0.00,,,0.00,WeatherCatV1.10B1784,2013-02-02 08:46:00,
2013-02-02 03:51:00,19.4,13.4,30.26,WNW,288,0.0,0.0,77,0.00,,,0.00,WeatherCatV1.10B1784,2013-02-02 08:51:00,
2013-02-02 03:56:00,19.6,14.2,30.26,WNW,288,0.0,0.0,79,0.00,,,0.00,WeatherCatV1.10B1784,2013-02-02 08:56:00,
2013-02-02 04:01:00,19.7,13.4,30.26,WNW,288,0.0,0.0,76,0.00,,,0.00,WeatherCatV1.10B1784,2013-02-02 09:01:00,
2013-02-02 04:06:00,19.6,12.4,30.26,WNW,288,0.0,0.0,73,0.00,,,0.00,WeatherCatV1.10B1784,2013-02-02 09:06:00,
2013-02-02 04:11:00,19.3,11.5,30.26,NNE,15,0.0,0.0,71,0.00,,,0.00,WeatherCatV1.10B1784,2013-02-02 09:11:00,
2013-02-02 04:16:00,19.3,11.8,30.25,NNE,15,0.0,0.0,72,0.00,,,0.00,WeatherCatV1.10B1784,2013-02-02 09:16:00,
2013-02-02 04:21:00,19.3,11.8,30.25,NNE,15,0.0,0.0,72,0.00,,,0.00,WeatherCatV1.10B1784,2013-02-02 09:21:00,
2013-02-02 04:26:00,19.5,12.6,30.24,NNE,15,0.0,0.0,74,0.00,,,0.00,WeatherCatV1.10B1784,2013-02-02 09:26:00,
2013-02-02 04:31:00,19.5,12.6,30.25,NNE,15,0.0,0.0,74,0.00,,,0.00,WeatherCatV1.10B1784,2013-02-02 09:31:00,
2013-02-02 04:36:00,19.6,13.6,30.25,NNE,15,0.0,0.0,77,0.00,,,0.00,WeatherCatV1.10B1784,2013-02-02 09:36:00,
2013-02-02 04:41:00,19.5,13.2,30.25,NNE,15,0.0,0.0,76,0.00,,,0.00,WeatherCatV1.10B1784,2013-02-02 09:41:00,
2013-02-02 04:46:00,19.6,12.7,30.25,NNE,15,0.0,0.0,74,0.00,,,0.00,WeatherCatV1.10B1784,2013-02-02 09:46:00,
2013-02-02 04:51:00,19.4,11.2,30.25,NNE,15,0.0,0.0,70,0.00,,,0.00,WeatherCatV1.10B1784,2013-02-02 09:51:00,
2013-02-02 04:56:00,19.2,10.7,30.24,NNE,15,0.0,0.0,69,0.00,,,0.00,WeatherCatV1.10B1784,2013-02-02 09:56:00,
2013-02-02 05:01:00,19.2,11.4,30.25,NNE,15,0.0,0.0,71,0.00,,,0.00,WeatherCatV1.10B1784,2013-02-02 10:01:00,
2013-02-02 05:06:00,19.1,10.3,30.24,NNE,15,0.0,0.0,68,0.00,,,0.00,WeatherCatV1.10B1784,2013-02-02 10:06:00,
2013-02-02 05:11:00,19.1,11.3,30.24,NNE,15,0.0,0.0,71,0.00,,,0.00,WeatherCatV1.10B1784,2013-02-02 10:11:00,
2013-02-02 05:16:00,19.1,11.0,30.24,WNW,293,0.0,1.0,70,0.00,,,0.00,WeatherCatV1.10B1784,2013-02-02 10:16:00,
2013-02-02 05:21:00,19.1,12.8,30.25,WNW,293,0.0,0.0,76,0.00,,,0.00,WeatherCatV1.10B1784,2013-02-02 10:21:00,
2013-02-02 05:26:00,19.2,12.6,30.25,WNW,293,0.0,0.0,75,0.00,,,0.00,WeatherCatV1.10B1784,2013-02-02 10:26:00,
2013-02-02 05:31:00,19.3,12.7,30.25,WNW,293,0.0,0.0,75,0.00,,,0.00,WeatherCatV1.10B1784,2013-02-02 10:31:00,
2013-02-02 05:36:00,19.1,11.3,30.25,WNW,293,0.0,0.0,71,0.00,,,0.00,WeatherCatV1.10B1784,2013-02-02 10:36:00,
2013-02-02 05:41:00,18.9,11.4,30.25,WNW,293,0.0,0.0,72,0.00,,,0.00,WeatherCatV1.10B1784,2013-02-02 10:41:00,
2013-02-02 05:46:00,18.9,12.0,30.25,WNW,293,0.0,0.0,74,0.00,,,0.00,WeatherCatV1.10B1784,2013-02-02 10:46:00,
2013-02-02 05:51:00,18.9,12.0,30.25,WNW,293,0.0,0.0,74,0.00,,,0.00,WeatherCatV1.10B1784,2013-02-02 10:51:00,
2013-02-02 05:56:00,18.9,11.7,30.25,WNW,293,0.0,0.0,73,0.00,,,0.00,WeatherCatV1.10B1784,2013-02-02 10:56:00,
2013-02-02 06:01:00,18.9,12.3,30.25,WNW,293,0.0,0.0,75,0.00,,,0.00,WeatherCatV1.10B1784,2013-02-02 11:01:00,
2013-02-02 06:06:00,19.0,13.9,30.25,WNW,293,0.0,0.0,80,0.00,,,0.00,WeatherCatV1.10B1784,2013-02-02 11:06:00,
2013-02-02 06:11:00,19.0,12.1,30.25,WNW,293,0.0,0.0,74,0.00,,,0.00,WeatherCatV1.10B1784,2013-02-02 11:11:00,
2013-02-02 06:16:00,19.0,13.0,30.25,WNW,293,0.0,0.0,77,0.00,,,0.00,WeatherCatV1.10B1784,2013-02-02 11:16:00,
2013-02-02 06:21:00,19.1,13.1,30.25,WNW,293,0.0,0.0,77,0.00,,,0.00,WeatherCatV1.10B1784,2013-02-02 11:21:00,
2013-02-02 06:26:00,19.0,12.1,30.25,WNW,293,0.0,0.0,74,0.00,,,0.00,WeatherCatV1.10B1784,2013-02-02 11:26:00,
2013-02-02 06:31:00,19.0,12.1,30.26,WNW,293,0.0,0.0,74,0.00,,,0.00,WeatherCatV1.10B1784,2013-02-02 11:31:00,
2013-02-02 06:36:00,19.0,14.4,30.26,WNW,293,0.0,0.0,82,0.00,,,0.00,WeatherCatV1.10B1784,2013-02-02 11:36:00,
2013-02-02 06:41:00,19.1,12.5,30.26,WNW,293,0.0,0.0,75,0.00,,,0.00,WeatherCatV1.10B1784,2013-02-02 11:41:00,
2013-02-02 06:46:00,19.1,12.2,30.26,WNW,293,0.0,0.0,74,0.00,,,0.00,WeatherCatV1.10B1784,2013-02-02 11:46:00,
2013-02-02 06:51:00,19.1,12.2,30.25,WNW,293,0.0,0.0,74,0.00,,,0.00,WeatherCatV1.10B1784,2013-02-02 11:51:00,
2013-02-02 06:56:00,19.2,12.9,30.25,WNW,293,0.0,0.0,76,0.00,,,0.00,WeatherCatV1.10B1784,2013-02-02 11:56:00,
2013-02-02 07:01:00,19.2,11.4,30.26,WNW,293,0.0,0.0,71,0.00,,,0.00,WeatherCatV1.10B1784,2013-02-02 12:01:00,
2013-02-02 07:06:00,19.3,12.1,30.26,WNW,293,0.0,0.0,73,0.00,,,0.00,WeatherCatV1.10B1784,2013-02-02 12:06:00,
2013-02-02 07:11:00,19.4,12.8,30.26,NNW,342,0.0,0.0,75,0.00,,,0.00,WeatherCatV1.10B1784,2013-02-02 12:11:00,
2013-02-02 07:16:00,19.7,12.2,30.26,NNW,342,0.0,0.0,72,0.00,,,0.00,WeatherCatV1.10B1784,2013-02-02 12:16:00,
2013-02-02 07:21:00,20.0,11.2,30.26,South,176,0.0,3.0,68,0.00,,,0.00,WeatherCatV1.10B1784,2013-02-02 12:21:00,
2013-02-02 07:26:00,20.4,10.5,30.26,South,176,0.0,0.0,65,0.00,,,0.00,WeatherCatV1.10B1784,2013-02-02 12:26:00,
2013-02-02 07:31:00,20.8,9.5,30.26,WNW,294,0.0,1.0,61,0.00,,,0.00,WeatherCatV1.10B1784,2013-02-02 12:31:00,
2013-02-02 07:36:00,21.2,8.8,30.26,WNW,295,0.0,0.0,58,0.00,,,0.00,WeatherCatV1.10B1784,2013-02-02 12:36:00,
2013-02-02 07:41:00,21.7,8.5,30.26,ENE,59,0.0,3.0,56,0.00,,,0.00,WeatherCatV1.10B1784,2013-02-02 12:41:00,
2013-02-02 07:46:00,22.2,9.7,30.26,SE,133,1.0,1.0,58,0.00,,,0.00,WeatherCatV1.10B1784,2013-02-02 12:46:00,
2013-02-02 07:51:00,22.6,10.1,30.26,WSW,242,0.0,0.0,58,0.00,,,0.00,WeatherCatV1.10B1784,2013-02-02 12:51:00,
2013-02-02 07:56:00,23.0,8.4,30.26,SSW,211,1.0,1.0,53,0.00,,,0.00,WeatherCatV1.10B1784,2013-02-02 12:56:00,
2013-02-02 08:01:00,23.2,7.3,30.26,SSW,209,0.0,1.0,50,0.00,,,0.00,WeatherCatV1.10B1784,2013-02-02 13:01:00,
2013-02-02 08:06:00,23.6,7.7,30.26,ESE,109,1.0,1.0,50,0.00,,,0.00,WeatherCatV1.10B1784,2013-02-02 13:06:00,
2013-02-02 08:11:00,23.8,8.3,30.26,ESE,103,0.0,2.0,51,0.00,,,0.00,WeatherCatV1.10B1784,2013-02-02 13:11:00,
2013-02-02 08:16:00,24.1,8.6,30.26,South,185,2.0,4.0,51,0.00,,,0.00,WeatherCatV1.10B1784,2013-02-02 13:16:00,
2013-02-02 08:21:00,24.6,8.2,30.26,West,272,0.0,2.0,49,0.00,,,0.00,WeatherCatV1.10B1784,2013-02-02 13:21:00,
2013-02-02 08:26:00,25.1,8.2,30.26,NE,49,0.0,3.0,48,0.00,,,0.00,WeatherCatV1.10B1784,2013-02-02 13:26:00,
2013-02-02 08:31:00,25.4,9.8,30.26,West,261,0.0,0.0,51,0.00,,,0.00,WeatherCatV1.10B1784,2013-02-02 13:31:00,
2013-02-02 08:36:00,25.6,8.2,30.25,ESE,109,0.0,4.0,47,0.00,,,0.00,WeatherCatV1.10B1784,2013-02-02 13:36:00,
2013-02-02 08:41:00,25.7,8.3,30.25,West,261,2.0,3.0,47,0.00,,,0.00,WeatherCatV1.10B1784,2013-02-02 13:41:00,
2013-02-02 08:46:00,25.8,8.4,30.26,West,265,1.0,7.0,47,0.00,,,0.00,WeatherCatV1.10B1784,2013-02-02 13:46:00,
2013-02-02 08:51:00,25.9,8.5,30.25,SSW,206,0.0,2.0,47,0.00,,,0.00,WeatherCatV1.10B1784,2013-02-02 13:51:00,
2013-02-02 08:56:00,26.1,8.2,30.25,WSW,258,0.0,3.0,46,0.00,,,0.00,WeatherCatV1.10B1784,2013-02-02 13:56:00,
2013-02-02 09:01:00,26.2,8.8,30.25,WSW,244,1.0,4.0,47,0.00,,,0.00,WeatherCatV1.10B1784,2013-02-02 14:01:00,
2013-02-02 09:06:00,26.5,8.6,30.26,SW,225,3.0,6.0,46,0.00,,,0.00,WeatherCatV1.10B1784,2013-02-02 14:06:00,
2013-02-02 09:11:00,26.7,7.8,30.26,SSW,200,0.0,4.0,44,0.00,,,0.00,WeatherCatV1.10B1784,2013-02-02 14:11:00,
2013-02-02 09:16:00,26.9,7.9,30.25,South,190,2.0,2.0,44,0.00,,,0.00,WeatherCatV1.10B1784,2013-02-02 14:16:00,
2013-02-02 09:21:00,27.1,8.1,30.25,South,176,1.0,4.0,44,0.00,,,0.00,WeatherCatV1.10B1784,2013-02-02 14:21:00,
2013-02-02 09:31:00,27.4,7.9,30.25,ESE,105,1.0,4.0,43,0.00,,,0.00,WeatherCatV1.10B1784,2013-02-02 14:31:00,
2013-02-02 09:36:00,27.6,8.1,30.25,SW,234,4.0,9.0,43,0.00,,,0.00,WeatherCatV1.10B1784,2013-02-02 14:36:00,
2013-02-02 09:41:00,27.9,7.8,30.24,WNW,296,0.0,9.0,42,0.00,,,0.00,WeatherCatV1.10B1784,2013-02-02 14:41:00,
2013-02-02 09:46:00,28.2,8.6,30.24,West,270,2.0,5.0,43,0.00,,,0.00,WeatherCatV1.10B1784,2013-02-02 14:46:00,
2013-02-02 09:51:00,28.7,8.5,30.24,SSW,194,3.0,4.0,42,0.00,,,0.00,WeatherCatV1.10B1784,2013-02-02 14:51:00,
2013-02-02 09:56:00,29.0,8.3,30.23,WNW,290,2.0,7.0,41,0.00,,,0.00,WeatherCatV1.10B1784,2013-02-02 14:56:00,
2013-02-02 10:06:00,28.9,7.6,30.22,West,259,6.0,9.0,40,0.00,,,0.00,WeatherCatV1.10B1784,2013-02-02 15:06:00,
2013-02-02 10:11:00,28.6,7.9,30.22,West,272,4.0,9.0,41,0.00,,,0.00,WeatherCatV1.10B1784,2013-02-02 15:11:00,
2013-02-02 10:16:00,28.6,9.5,30.22,SW,227,6.0,6.0,44,0.00,,,0.00,WeatherCatV1.10B1784,2013-02-02 15:16:00,
2013-02-02 10:21:00,28.8,8.6,30.22,SW,221,2.0,7.0,42,0.00,,,0.00,WeatherCatV1.10B1784,2013-02-02 15:21:00,
2013-02-02 10:26:00,29.2,9.0,30.22,South,187,1.0,6.0,42,0.00,,,0.00,WeatherCatV1.10B1784,2013-02-02 15:26:00,
2013-02-02 10:31:00,29.7,11.0,30.22,WSW,257,3.0,3.0,45,0.00,,,0.00,WeatherCatV1.10B1784,2013-02-02 15:31:00,
2013-02-02 10:36:00,30.3,10.0,30.22,SW,224,3.0,6.0,42,0.00,,,0.00,WeatherCatV1.10B1784,2013-02-02 15:36:00,
2013-02-02 10:41:00,30.6,10.3,30.22,SW,229,2.0,5.0,42,0.00,,,0.00,WeatherCatV1.10B1784,2013-02-02 15:41:00,
2013-02-02 10:46:00,30.7,9.8,30.22,SSW,196,5.0,6.0,41,0.00,,,0.00,WeatherCatV1.10B1784,2013-02-02 15:46:00,
2013-02-02 10:51:00,30.8,9.9,30.22,SSE,161,2.0,4.0,41,0.00,,,0.00,WeatherCatV1.10B1784,2013-02-02 15:51:00,
2013-02-02 10:56:00,30.9,10.0,30.21,SE,135,1.0,3.0,41,0.00,,,0.00,WeatherCatV1.10B1784,2013-02-02 15:56:00,
2013-02-02 11:01:00,31.2,10.3,30.21,SSE,159,3.0,4.0,41,0.00,,,0.00,WeatherCatV1.10B1784,2013-02-02 16:01:00,
2013-02-02 11:06:00,31.5,10.5,30.21,SSW,213,3.0,6.0,41,0.00,,,0.00,WeatherCatV1.10B1784,2013-02-02 16:06:00,
2013-02-02 11:11:00,31.6,11.7,30.21,WSW,246,0.0,2.0,43,0.00,,,0.00,WeatherCatV1.10B1784,2013-02-02 16:11:00,
2013-02-02 11:16:00,31.6,12.2,30.21,SSE,157,0.0,0.0,44,0.00,,,0.00,WeatherCatV1.10B1784,2013-02-02 16:16:00,
2013-02-02 11:21:00,31.8,11.4,30.22,SSW,197,2.0,3.0,42,0.00,,,0.00,WeatherCatV1.10B1784,2013-02-02 16:21:00,
2013-02-02 11:26:00,31.8,10.3,30.22,West,263,0.0,4.0,40,0.00,,,0.00,WeatherCatV1.10B1784,2013-02-02 16:26:00,
2013-02-02 11:31:00,32.0,11.0,30.22,WSW,239,1.0,3.0,41,0.00,,,0.00,WeatherCatV1.10B1784,2013-02-02 16:31:00,
2013-02-02 11:36:00,32.2,10.6,30.22,West,273,0.0,4.0,40,0.00,,,0.00,WeatherCatV1.10B1784,2013-02-02 16:36:00,
2013-02-02 11:41:00,32.4,10.8,30.22,West,278,1.0,4.0,40,0.00,,,0.00,WeatherCatV1.10B1784,2013-02-02 16:41:00,
2013-02-02 11:46:00,32.5,11.4,30.21,SSW,207,0.0,1.0,41,0.00,,,0.00,WeatherCatV1.10B1784,2013-02-02 16:46:00,
2013-02-02 11:51:00,32.6,11.5,30.22,WSW,250,0.0,1.0,41,0.00,,,0.00,WeatherCatV1.10B1784,2013-02-02 16:51:00,
2013-02-02 11:56:00,33.0,11.9,30.21,South,191,1.0,3.0,41,0.00,,,0.00,WeatherCatV1.10B1784,2013-02-02 16:56:00,
2013-02-02 12:01:00,33.6,11.3,30.21,SE,141,0.0,2.0,39,0.00,,,0.00,WeatherCatV1.10B1784,2013-02-02 17:01:00,
2013-02-02 12:06:00,33.9,11.6,30.20,SSW,198,4.0,5.0,39,0.00,,,0.00,WeatherCatV1.10B1784,2013-02-02 17:06:00,
2013-02-02 12:11:00,34.1,11.8,30.20,WSW,252,1.0,4.0,39,0.00,,,0.00,WeatherCatV1.10B1784,2013-02-02 17:11:00,
2013-02-02 12:16:00,34.4,12.0,30.20,West,279,2.0,4.0,39,0.00,,,0.00,WeatherCatV1.10B1784,2013-02-02 17:16:00,
2013-02-02 12:21:00,34.6,12.8,30.19,WSW,245,4.0,4.0,40,0.00,,,0.00,WeatherCatV1.10B1784,2013-02-02 17:21:00,
2013-02-02 12:26:00,34.7,12.9,30.18,West,266,2.0,2.0,40,0.00,,,0.00,WeatherCatV1.10B1784,2013-02-02 17:26:00,
2013-02-02 12:31:00,35.0,12.0,30.18,SW,227,0.0,0.0,38,0.00,,,0.00,WeatherCatV1.10B1784,2013-02-02 17:31:00,
2013-02-02 12:36:00,35.4,12.9,30.18,SSW,192,0.0,0.0,39,0.00,,,0.00,WeatherCatV1.10B1784,2013-02-02 17:36:00,
2013-02-02 12:41:00,35.7,13.2,30.17,SW,224,3.0,3.0,39,0.00,,,0.00,WeatherCatV1.10B1784,2013-02-02 17:41:00,
2013-02-02 12:46:00,36.0,12.9,30.16,ESE,103,0.0,3.0,38,0.00,,,0.00,WeatherCatV1.10B1784,2013-02-02 17:46:00,
2013-02-02 12:51:00,36.0,13.5,30.16,ENE,66,1.0,2.0,39,0.00,,,0.00,WeatherCatV1.10B1784,2013-02-02 17:51:00,
2013-02-02 12:56:00,36.1,14.1,30.16,East,86,0.0,1.0,40,0.00,,,0.00,WeatherCatV1.10B1784,2013-02-02 17:56:00,
2013-02-02 13:01:00,36.4,13.2,30.15,SE,142,0.0,2.0,38,0.00,,,0.00,WeatherCatV1.10B1784,2013-02-02 18:01:00,
2013-02-02 13:06:00,37.0,14.9,30.14,SW,219,0.0,2.0,40,0.00,,,0.00,WeatherCatV1.10B1784,2013-02-02 18:06:00,
2013-02-02 13:11:00,37.9,15.8,30.14,West,263,1.0,3.0,40,0.00,,,0.00,WeatherCatV1.10B1784,2013-02-02 18:11:00,
2013-02-02 13:16:00,38.5,15.7,30.14,West,267,1.0,7.0,39,0.00,,,0.00,WeatherCatV1.10B1784,2013-02-02 18:16:00,
2013-02-02 13:21:00,39.0,16.2,30.14,SW,214,1.0,1.0,39,0.00,,,0.00,WeatherCatV1.10B1784,2013-02-02 18:21:00,
2013-02-02 13:26:00,39.1,16.3,30.13,SSW,212,3.0,5.0,39,0.00,,,0.00,WeatherCatV1.10B1784,2013-02-02 18:26:00,
2013-02-02 13:31:00,39.0,16.2,30.13,South,175,1.0,6.0,39,0.00,,,0.00,WeatherCatV1.10B1784,2013-02-02 18:31:00,
2013-02-02 13:36:00,38.7,15.3,30.12,SSE,155,3.0,4.0,38,0.00,,,0.00,WeatherCatV1.10B1784,2013-02-02 18:36:00,
2013-02-02 13:41:00,38.7,15.9,30.12,West,271,3.0,5.0,39,0.00,,,0.00,WeatherCatV1.10B1784,2013-02-02 18:41:00,
2013-02-02 13:46:00,38.8,16.0,30.12,West,265,0.0,1.0,39,0.00,,,0.00,WeatherCatV1.10B1784,2013-02-02 18:46:00,
2013-02-02 13:51:00,38.9,16.7,30.11,SSW,200,0.0,3.0,40,0.00,,,0.00,WeatherCatV1.10B1784,2013-02-02 18:51:00,
2013-02-02 13:56:00,39.3,18.1,30.11,SW,215,3.0,3.0,42,0.00,,,0.00,WeatherCatV1.10B1784,2013-02-02 18:56:00,
2013-02-02 14:01:00,39.8,19.7,30.11,South,185,3.0,7.0,44,0.00,,,0.00,WeatherCatV1.10B1784,2013-02-02 19:01:00,
2013-02-02 14:06:00,40.3,24.5,30.11,WSW,248,4.0,11.0,53,0.00,,,0.00,WeatherCatV1.10B1784,2013-02-02 19:06:00,
2013-02-02 14:11:00,40.5,23.8,30.10,SW,222,2.0,5.0,51,0.00,,,0.00,WeatherCatV1.10B1784,2013-02-02 19:11:00,
2013-02-02 14:16:00,40.8,24.6,30.10,South,178,1.0,1.0,52,0.00,,,0.00,WeatherCatV1.10B1784,2013-02-02 19:16:00,
2013-02-02 14:21:00,41.0,24.3,30.09,South,173,1.0,4.0,51,0.00,,,0.00,WeatherCatV1.10B1784,2013-02-02 19:21:00,
2013-02-02 14:26:00,41.0,25.6,30.09,SSE,167,1.0,7.0,54,0.00,,,0.00,WeatherCatV1.10B1784,2013-02-02 19:26:00,
2013-02-02 14:31:00,41.0,26.1,30.09,SW,219,1.0,5.0,55,0.00,,,0.00,WeatherCatV1.10B1784,2013-02-02 19:31:00,
2013-02-02 14:36:00,41.3,25.9,30.09,SSE,164,2.0,7.0,54,0.00,,,0.00,WeatherCatV1.10B1784,2013-02-02 19:36:00,
2013-02-02 14:41:00,41.0,26.1,30.09,South,169,3.0,3.0,55,0.00,,,0.00,WeatherCatV1.10B1784,2013-02-02 19:41:00,
2013-02-02 14:46:00,40.4,26.4,30.09,SW,217,1.0,6.0,57,0.00,,,0.00,WeatherCatV1.10B1784,2013-02-02 19:46:00,
2013-02-02 14:51:00,40.2,26.2,30.09,WSW,241,3.0,7.0,57,0.00,,,0.00,WeatherCatV1.10B1784,2013-02-02 19:51:00,
2013-02-02 14:56:00,40.0,26.8,30.08,South,174,2.0,4.0,59,0.00,,,0.00,WeatherCatV1.10B1784,2013-02-02 19:56:00,
2013-02-02 15:01:00,40.0,26.8,30.08,South,169,2.0,3.0,59,0.00,,,0.00,WeatherCatV1.10B1784,2013-02-02 20:01:00,
2013-02-02 15:06:00,39.9,26.3,30.08,West,273,0.0,3.0,58,0.00,,,0.00,WeatherCatV1.10B1784,2013-02-02 20:06:00,
2013-02-02 15:11:00,39.8,26.2,30.08,SW,215,0.0,6.0,58,0.00,,,0.00,WeatherCatV1.10B1784,2013-02-02 20:11:00,
2013-02-02 15:16:00,39.7,26.1,30.08,SSE,148,1.0,2.0,58,0.00,,,0.00,WeatherCatV1.10B1784,2013-02-02 20:16:00,
2013-02-02 15:21:00,39.6,25.6,30.07,SSE,159,0.0,2.0,57,0.00,,,0.00,WeatherCatV1.10B1784,2013-02-02 20:21:00,
2013-02-02 15:26:00,39.7,26.6,30.07,SSE,168,1.0,3.0,59,0.00,,,0.00,WeatherCatV1.10B1784,2013-02-02 20:26:00,
2013-02-02 15:31:00,39.7,27.0,30.07,West,275,0.0,2.0,60,0.00,,,0.00,WeatherCatV1.10B1784,2013-02-02 20:31:00,
2013-02-02 15:36:00,39.7,27.0,30.07,SW,227,1.0,3.0,60,0.00,,,0.00,WeatherCatV1.10B1784,2013-02-02 20:36:00,
2013-02-02 15:41:00,39.7,27.4,30.06,West,270,0.0,4.0,61,0.00,,,0.00,WeatherCatV1.10B1784,2013-02-02 20:41:00,
2013-02-02 15:46:00,39.7,27.8,30.06,WSW,238,0.0,0.0,62,0.00,,,0.00,WeatherCatV1.10B1784,2013-02-02 20:46:00,
2013-02-02 15:51:00,39.7,28.2,30.06,SSW,213,0.0,1.0,63,0.00,,,0.00,WeatherCatV1.10B1784,2013-02-02 20:51:00,
2013-02-02 15:56:00,39.7,27.0,30.06,SSW,202,0.0,0.0,60,0.00,,,0.00,WeatherCatV1.10B1784,2013-02-02 20:56:00,
2013-02-02 16:01:00,39.7,26.6,30.06,WNW,289,0.0,3.0,59,0.00,,,0.00,WeatherCatV1.10B1784,2013-02-02 21:01:00,
2013-02-02 16:06:00,39.8,25.4,30.06,SE,145,0.0,2.0,56,0.00,,,0.00,WeatherCatV1.10B1784,2013-02-02 21:06:00,
2013-02-02 16:11:00,39.8,26.2,30.05,West,277,2.0,4.0,58,0.00,,,0.00,WeatherCatV1.10B1784,2013-02-02 21:11:00,
2013-02-02 16:16:00,39.8,25.8,30.05,WSW,249,2.0,3.0,57,0.00,,,0.00,WeatherCatV1.10B1784,2013-02-02 21:16:00,
2013-02-02 16:21:00,39.7,27.0,30.05,West,263,0.0,1.0,60,0.00,,,0.00,WeatherCatV1.10B1784,2013-02-02 21:21:00,
2013-02-02 16:26:00,39.6,26.1,30.06,WNW,284,2.0,4.0,58,0.00,,,0.00,WeatherCatV1.10B1784,2013-02-02 21:26:00,
2013-02-02 16:31:00,39.5,26.8,30.05,SW,215,1.0,2.0,60,0.00,,,0.00,WeatherCatV1.10B1784,2013-02-02 21:31:00,
2013-02-02 16:36:00,39.3,26.6,30.05,SSW,208,0.0,1.0,60,0.00,,,0.00,WeatherCatV1.10B1784,2013-02-02 21:36:00,
2013-02-02 16:41:00,39.2,26.9,30.05,SW,214,0.0,2.0,61,0.00,,,0.00,WeatherCatV1.10B1784,2013-02-02 21:41:00,
2013-02-02 16:46:00,39.1,27.2,30.06,West,269,0.0,2.0,62,0.00,,,0.00,WeatherCatV1.10B1784,2013-02-02 21:46:00,
2013-02-02 16:51:00,38.8,26.9,30.06,SW,232,2.0,2.0,62,0.00,,,0.00,WeatherCatV1.10B1784,2013-02-02 21:51:00,
2013-02-02 16:56:00,38.6,26.7,30.06,SW,232,0.0,2.0,62,0.00,,,0.00,WeatherCatV1.10B1784,2013-02-02 21:56:00,
2013-02-02 17:01:00,38.4,26.5,30.05,South,170,0.0,3.0,62,0.00,,,0.00,WeatherCatV1.10B1784,2013-02-02 22:01:00,
2013-02-02 17:06:00,38.2,26.7,30.05,SSW,204,0.0,0.0,63,0.00,,,0.00,WeatherCatV1.10B1784,2013-02-02 22:06:00,
2013-02-02 17:11:00,38.0,26.9,30.05,SSE,154,2.0,5.0,64,0.00,,,0.00,WeatherCatV1.10B1784,2013-02-02 22:11:00,
2013-02-02 17:16:00,37.9,27.2,30.04,SSE,160,0.0,0.0,65,0.00,,,0.00,WeatherCatV1.10B1784,2013-02-02 22:16:00,
2013-02-02 17:21:00,37.9,27.2,30.04,SSE,159,0.0,0.0,65,0.00,,,0.00,WeatherCatV1.10B1784,2013-02-02 22:21:00,
2013-02-02 17:26:00,37.8,27.5,30.05,SSW,209,0.0,2.0,66,0.00,,,0.00,WeatherCatV1.10B1784,2013-02-02 22:26:00,
2013-02-02 17:31:00,37.8,27.5,30.05,SSW,209,0.0,0.0,66,0.00,,,0.00,WeatherCatV1.10B1784,2013-02-02 22:31:00,
2013-02-02 17:36:00,37.8,27.5,30.04,SSW,209,0.0,0.0,66,0.00,,,0.00,WeatherCatV1.10B1784,2013-02-02 22:36:00,
2013-02-02 17:41:00,37.8,28.2,30.05,SSW,209,0.0,0.0,68,0.00,,,0.00,WeatherCatV1.10B1784,2013-02-02 22:41:00,
2013-02-02 17:46:00,37.7,28.1,30.05,ESE,115,1.0,1.0,68,0.00,,,0.00,WeatherCatV1.10B1784,2013-02-02 22:46:00,
2013-02-02 17:51:00,37.7,28.5,30.04,East,93,0.0,0.0,69,0.00,,,0.00,WeatherCatV1.10B1784,2013-02-02 22:51:00,
2013-02-02 17:56:00,37.7,29.5,30.03,North,0,0.0,1.0,72,0.00,,,0.00,WeatherCatV1.10B1784,2013-02-02 22:56:00,
2013-02-02 18:01:00,37.7,28.8,30.03,North,0,0.0,1.0,70,0.00,,,0.00,WeatherCatV1.10B1784,2013-02-02 23:01:00,
2013-02-02 18:06:00,37.6,29.1,30.02,North,0,0.0,0.0,71,0.00,,,0.00,WeatherCatV1.10B1784,2013-02-02 23:06:00,
2013-02-02 18:11:00,37.5,29.0,30.03,North,0,0.0,0.0,71,0.00,,,0.00,WeatherCatV1.10B1784,2013-02-02 23:11:00,
2013-02-02 18:16:00,37.4,29.2,30.03,North,0,0.0,0.0,72,0.00,,,0.00,WeatherCatV1.10B1784,2013-02-02 23:16:00,
2013-02-02 18:21:00,37.4,29.2,30.03,North,0,0.0,0.0,72,0.00,,,0.00,WeatherCatV1.10B1784,2013-02-02 23:21:00,
2013-02-02 18:26:00,37.3,29.1,30.03,North,0,0.0,0.0,72,0.00,,,0.00,WeatherCatV1.10B1784,2013-02-02 23:26:00,
2013-02-02 18:31:00,37.2,29.4,30.02,North,0,0.0,0.0,73,0.00,,,0.00,WeatherCatV1.10B1784,2013-02-02 23:31:00,
2013-02-02 18:36:00,37.1,29.3,30.02,NNW,347,0.0,1.0,73,0.00,,,0.00,WeatherCatV1.10B1784,2013-02-02 23:36:00,
2013-02-02 18:41:00,37.1,29.6,30.03,NNW,347,0.0,0.0,74,0.00,,,0.00,WeatherCatV1.10B1784,2013-02-02 23:41:00,
2013-02-02 18:46:00,37.1,29.6,30.03,WSW,241,1.0,1.0,74,0.00,,,0.00,WeatherCatV1.10B1784,2013-02-02 23:46:00,
2013-02-02 18:51:00,37.1,29.9,30.03,WSW,245,1.0,3.0,75,0.00,,,0.00,WeatherCatV1.10B1784,2013-02-02 23:51:00,
2013-02-02 18:56:00,37.0,30.2,30.03,WSW,246,1.0,1.0,76,0.00,,,0.00,WeatherCatV1.10B1784,2013-02-02 23:56:00,
2013-02-02 19:01:00,37.0,30.5,30.03,West,264,0.0,0.0,77,0.00,,,0.00,WeatherCatV1.10B1784,2013-02-03 00:01:00,
2013-02-02 19:06:00,37.0,30.5,30.03,West,264,0.0,0.0,77,0.00,,,0.00,WeatherCatV1.10B1784,2013-02-03 00:06:00,
2013-02-02 19:11:00,37.1,30.6,30.04,WSW,242,1.0,2.0,77,0.00,,,0.00,WeatherCatV1.10B1784,2013-02-03 00:11:00,
2013-02-02 19:16:00,37.1,30.9,30.04,SSW,200,0.0,0.0,78,0.00,,,0.00,WeatherCatV1.10B1784,2013-02-03 00:16:00,
2013-02-02 19:21:00,37.0,30.8,30.04,SSW,199,0.0,0.0,78,0.00,,,0.00,WeatherCatV1.10B1784,2013-02-03 00:21:00,
2013-02-02 19:26:00,36.7,31.4,30.04,SSE,158,0.0,0.0,81,0.00,,,0.00,WeatherCatV1.10B1784,2013-02-03 00:26:00,
2013-02-02 19:31:00,36.5,31.5,30.04,West,259,0.0,1.0,82,0.00,,,0.00,WeatherCatV1.10B1784,2013-02-03 00:31:00,
2013-02-02 19:36:00,36.2,31.5,30.04,West,259,0.0,0.0,83,0.00,,,0.00,WeatherCatV1.10B1784,2013-02-03 00:36:00,
2013-02-02 19:41:00,35.9,31.5,30.04,West,259,0.0,0.0,84,0.00,,,0.00,WeatherCatV1.10B1784,2013-02-03 00:41:00,
2013-02-02 19:46:00,35.6,31.5,30.05,West,259,0.0,0.0,85,0.00,,,0.00,WeatherCatV1.10B1784,2013-02-03 00:46:00,
2013-02-02 19:51:00,35.1,31.3,30.05,West,259,0.0,0.0,86,0.00,,,0.00,WeatherCatV1.10B1784,2013-02-03 00:51:00,
2013-02-02 19:56:00,34.6,31.1,30.05,West,259,0.0,0.0,87,0.00,,,0.00,WeatherCatV1.10B1784,2013-02-03 00:56:00,
2013-02-02 20:01:00,34.2,31.0,30.05,West,259,0.0,0.0,88,0.00,,,0.00,WeatherCatV1.10B1784,2013-02-03 01:01:00,
2013-02-02 20:06:00,33.9,31.3,30.05,West,259,0.0,0.0,90,0.00,,,0.00,WeatherCatV1.10B1784,2013-02-03 01:06:00,
2013-02-02 20:11:00,33.8,31.5,30.05,West,259,0.0,0.0,91,0.00,,,0.00,WeatherCatV1.10B1784,2013-02-03 01:11:00,
2013-02-02 20:16:00,33.7,31.4,30.04,West,259,0.0,0.0,91,0.00,,,0.00,WeatherCatV1.10B1784,2013-02-03 01:16:00,
2013-02-02 20:21:00,33.6,31.8,30.05,West,259,0.0,0.0,93,0.00,,,0.00,WeatherCatV1.10B1784,2013-02-03 01:21:00,
2013-02-02 20:26:00,33.7,31.9,30.05,West,259,0.0,0.0,93,0.00,,,0.00,WeatherCatV1.10B1784,2013-02-03 01:26:00,
2013-02-02 20:31:00,33.7,31.6,30.05,West,259,0.0,0.0,92,0.00,,,0.00,WeatherCatV1.10B1784,2013-02-03 01:31:00,
2013-02-02 20:36:00,33.6,31.5,30.06,West,259,0.0,0.0,92,0.00,,,0.00,WeatherCatV1.10B1784,2013-02-03 01:36:00,
2013-02-02 20:41:00,33.5,31.4,30.06,West,259,0.0,0.0,92,0.00,,,0.00,WeatherCatV1.10B1784,2013-02-03 01:41:00,
2013-02-02 20:46:00,33.4,31.3,30.05,West,259,0.0,0.0,92,0.00,,,0.00,WeatherCatV1.10B1784,2013-02-03 01:46:00,
2013-02-02 20:51:00,33.4,31.6,30.05,West,259,0.0,0.0,93,0.00,,,0.00,WeatherCatV1.10B1784,2013-02-03 01:51:00,
2013-02-02 20:56:00,33.3,31.5,30.05,West,259,0.0,0.0,93,0.00,,,0.00,WeatherCatV1.10B1784,2013-02-03 01:56:00,
2013-02-02 21:01:00,33.3,31.5,30.05,West,259,0.0,0.0,93,0.00,,,0.00,WeatherCatV1.10B1784,2013-02-03 02:01:00,
2013-02-02 21:06:00,33.2,31.4,30.06,West,259,0.0,0.0,93,0.00,,,0.00,WeatherCatV1.10B1784,2013-02-03 02:06:00,
2013-02-02 21:11:00,33.2,31.4,30.05,West,259,0.0,0.0,93,0.00,,,0.00,WeatherCatV1.10B1784,2013-02-03 02:11:00,
2013-02-02 21:16:00,33.1,31.6,30.05,West,259,0.0,0.0,94,0.00,,,0.00,WeatherCatV1.10B1784,2013-02-03 02:16:00,
2013-02-02 21:21:00,33.1,31.6,30.05,West,259,0.0,0.0,94,0.00,,,0.00,WeatherCatV1.10B1784,2013-02-03 02:21:00,
2013-02-02 21:26:00,33.2,31.7,30.05,West,259,0.0,0.0,94,0.00,,,0.00,WeatherCatV1.10B1784,2013-02-03 02:26:00,
2013-02-02 21:36:00,33.2,31.7,30.05,West,262,0.0,0.0,94,0.00,,,0.00,WeatherCatV1.10B1784,2013-02-03 02:36:00,
2013-02-02 21:41:00,33.3,31.8,30.05,West,262,0.0,0.0,94,0.00,,,0.00,WeatherCatV1.10B1784,2013-02-03 02:41:00,
2013-02-02 21:51:00,33.4,32.1,30.05,West,265,0.0,0.0,95,0.00,,,0.00,WeatherCatV1.10B1784,2013-02-03 02:51:00,
2013-02-02 21:56:00,33.4,32.1,30.05,West,265,0.0,0.0,95,0.00,,,0.00,WeatherCatV1.10B1784,2013-02-03 02:56:00,
2013-02-02 22:01:00,33.4,31.9,30.05,West,265,0.0,0.0,94,0.00,,,0.00,WeatherCatV1.10B1784,2013-02-03 03:01:00,
2013-02-02 22:06:00,33.4,31.9,30.05,West,265,0.0,0.0,94,0.00,,,0.00,WeatherCatV1.10B1784,2013-02-03 03:06:00,
2013-02-02 22:11:00,33.4,31.9,30.05,West,265,0.0,0.0,94,0.00,,,0.00,WeatherCatV1.10B1784,2013-02-03 03:11:00,
2013-02-02 22:16:00,33.4,31.9,30.04,NNE,32,0.0,0.0,94,0.00,,,0.00,WeatherCatV1.10B1784,2013-02-03 03:16:00,
2013-02-02 22:21:00,33.5,32.0,30.04,ENE,57,0.0,4.0,94,0.00,,,0.00,WeatherCatV1.10B1784,2013-02-03 03:21:00,
2013-02-02 22:26:00,33.6,32.1,30.04,ENE,58,0.0,0.0,94,0.00,,,0.00,WeatherCatV1.10B1784,2013-02-03 03:26:00,
2013-02-02 22:31:00,33.7,32.2,30.04,NNE,32,0.0,1.0,94,0.00,,,0.00,WeatherCatV1.10B1784,2013-02-03 03:31:00,
2013-02-02 22:36:00,33.8,32.3,30.04,NNE,30,1.0,2.0,94,0.00,,,0.00,WeatherCatV1.10B1784,2013-02-03 03:36:00,
2013-02-02 22:41:00,33.8,32.0,30.04,North,9,1.0,1.0,93,0.00,,,0.00,WeatherCatV1.10B1784,2013-02-03 03:41:00,
2013-02-02 22:46:00,33.9,32.1,30.04,NNE,28,0.0,1.0,93,0.00,,,0.00,WeatherCatV1.10B1784,2013-02-03 03:46:00,
2013-02-02 22:51:00,33.9,32.1,30.04,North,5,2.0,3.0,93,0.00,,,0.00,WeatherCatV1.10B1784,2013-02-03 03:51:00,
2013-02-02 22:56:00,33.9,32.1,30.04,ENE,59,0.0,1.0,93,0.00,,,0.00,WeatherCatV1.10B1784,2013-02-03 03:56:00,
2013-02-02 23:01:00,33.8,32.0,30.04,ESE,102,2.0,4.0,93,0.00,,,0.00,WeatherCatV1.10B1784,2013-02-03 04:01:00,
2013-02-02 23:06:00,33.6,31.8,30.03,East,90,3.0,3.0,93,0.00,,,0.00,WeatherCatV1.10B1784,2013-02-03 04:06:00,
2013-02-02 23:11:00,33.4,31.6,30.03,SE,131,0.0,3.0,93,0.00,,,0.00,WeatherCatV1.10B1784,2013-02-03 04:11:00,
2013-02-02 23:16:00,33.3,31.5,30.03,NNE,22,0.0,3.0,93,0.00,,,0.00,WeatherCatV1.10B1784,2013-02-03 04:16:00,
2013-02-02 23:21:00,33.2,31.4,30.03,East,96,0.0,2.0,93,0.00,,,0.00,WeatherCatV1.10B1784,2013-02-03 04:21:00,
2013-02-02 23:26:00,33.2,31.4,30.03,SE,127,1.0,4.0,93,0.00,,,0.00,WeatherCatV1.10B1784,2013-02-03 04:26:00,
2013-02-02 23:31:00,33.1,31.3,30.03,East,81,0.0,3.0,93,0.00,,,0.00,WeatherCatV1.10B1784,2013-02-03 04:31:00,
2013-02-02 23:36:00,33.1,31.0,30.03,NE,38,2.0,3.0,92,0.00,,,0.00,WeatherCatV1.10B1784,2013-02-03 04:36:00,
2013-02-02 23:41:00,33.1,31.0,30.02,NNE,30,1.0,3.0,92,0.00,,,0.00,WeatherCatV1.10B1784,2013-02-03 04:41:00,
2013-02-02 23:46:00,33.1,31.0,30.02,NNW,338,1.0,1.0,92,0.00,,,0.00,WeatherCatV1.10B1784,2013-02-03 04:46:00,
2013-02-02 23:51:00,33.1,31.0,30.02,NE,52,1.0,4.0,92,0.00,,,0.00,WeatherCatV1.10B1784,2013-02-03 04:51:00,
2013-02-02 23:56:00,33.1,30.8,30.02,North,11,1.0,4.0,91,0.00,,,0.00,WeatherCatV1.10B1784,2013-02-03 04:56:00,